Terminal Aerodrome Forecast
Issued by NWS Lake Charles, LA

Home | Current Version | Previous Version | Text Only | Print | Product List | Glossary On
Versions: 1 2 3 4 5 6 7 8 9 10 11 12 13 14 15
000
FTUS44 KLCH 201100
TAFLFT
TAF
KLFT 201132Z 2012/2112 20004KT P6SM FEW050
     FM201500 22004KT P6SM FEW250
     FM201800 19005KT P6SM VCTS SCT030 SCT050CB
      TEMPO 2018/2022 VRB18G23KT 5SM -TSRA BKN025CB BKN035
     FM202300 19006KT P6SM SCT250=

USA.gov is the U.S. government's official web portal to all federal, state and local government web resources and services.